Time;durP1;ratioP1;P1;durP2;ratioP2;P2;SDS_P1;SDS_P2;PMS_P1;PMS_P2;Temp;Humidity;BMP_temperature;BMP_pressure;BME280_temperature;BME280_humidity;BME280_pressure;Samples;Min_cycle;Max_cycle;Signal;HPM_P1;HPM_P2
2023/03/15 00:00:48;;;;;;;7.80;1.30;;;;;;;;;;5115463;28;20035;-67
2023/03/15 00:03:14;;;;;;;8.15;2.00;;;;;;;;;;5115309;28;20449;-66
2023/03/15 00:05:44;;;;;;;9.80;1.38;;;;;;;;;;5115440;28;20039;-67
2023/03/15 00:08:11;;;;;;;6.25;1.20;;;;;;;;;;5115593;28;20043;-67
2023/03/15 00:10:44;;;;;;;8.93;1.45;;;;;;;;;;5115368;28;20035;-66
2023/03/15 00:13:10;;;;;;;5.65;1.23;;;;;;;;;;5115372;28;20095;-67
2023/03/15 00:15:36;;;;;;;8.88;1.80;;;;;;;;;;5115822;28;20117;-67
2023/03/15 00:18:02;;;;;;;8.50;1.75;;;;;;;;;;5115464;28;20399;-67
2023/03/15 00:20:29;;;;;;;3.63;1.20;;;;;;;;;;5114804;28;20529;-67
2023/03/15 00:22:55;;;;;;;4.10;1.17;;;;;;;;;;5098476;28;20130;-67
2023/03/15 00:25:21;;;;;;;5.18;1.90;;;;;;;;;;5115559;28;20039;-67
2023/03/15 00:27:47;;;;;;;8.20;1.58;;;;;;;;;;5132472;27;20096;-67
2023/03/15 00:30:13;;;;;;;3.30;1.35;;;;;;;;;;5115589;28;20466;-67
2023/03/15 00:32:39;;;;;;;3.97;1.05;;;;;;;;;;5115357;28;20046;-67
2023/03/15 00:35:06;;;;;;;7.50;1.40;;;;;;;;;;5098318;28;20502;-67
2023/03/15 00:37:32;;;;;;;5.05;1.63;;;;;;;;;;5115344;28;20035;-67
2023/03/15 00:39:58;;;;;;;7.47;2.42;;;;;;;;;;5115194;28;20039;-67
2023/03/15 00:42:26;;;;;;;6.68;1.38;;;;;;;;;;5100224;28;20474;-67
2023/03/15 00:44:56;;;;;;;3.63;1.65;;;;;;;;;;5128895;27;20070;-67
2023/03/15 00:47:22;;;;;;;5.72;1.60;;;;;;;;;;5094897;28;20092;-67
2023/03/15 00:49:49;;;;;;;7.50;1.40;;;;;;;;;;5093403;28;20043;-67
2023/03/15 00:52:15;;;;;;;5.43;1.42;;;;;;;;;;5101199;27;20099;-73
2023/03/15 00:54:42;;;;;;;6.32;1.40;;;;;;;;;;5118432;27;20055;-73
2023/03/15 00:57:08;;;;;;;6.15;1.30;;;;;;;;;;5119782;27;20381;-73
2023/03/15 00:59:34;;;;;;;11.15;1.65;;;;;;;;;;5119240;27;20520;-73
2023/03/15 01:02:01;;;;;;;9.48;2.30;;;;;;;;;;5129625;27;20039;-72
2023/03/15 01:04:27;;;;;;;6.43;1.52;;;;;;;;;;5127420;27;20065;-73
2023/03/15 01:06:53;;;;;;;9.57;2.45;;;;;;;;;;5119091;27;20049;-73
2023/03/15 01:09:19;;;;;;;7.45;1.63;;;;;;;;;;5118675;27;20097;-73
2023/03/15 01:11:45;;;;;;;7.72;1.67;;;;;;;;;;5101658;27;20047;-73
2023/03/15 01:14:11;;;;;;;6.57;1.40;;;;;;;;;;5118179;27;20103;-72
2023/03/15 01:16:37;;;;;;;9.13;1.40;;;;;;;;;;5118334;27;20046;-72
2023/03/15 01:19:03;;;;;;;10.13;1.42;;;;;;;;;;5101560;27;20035;-73
2023/03/15 01:21:30;;;;;;;6.10;1.23;;;;;;;;;;5118019;27;20068;-72
2023/03/15 01:23:56;;;;;;;7.10;1.80;;;;;;;;;;5118029;27;20054;-72
2023/03/15 01:26:22;;;;;;;5.00;1.63;;;;;;;;;;5118603;27;20095;-72
2023/03/15 01:28:48;;;;;;;7.00;1.42;;;;;;;;;;5118150;27;20066;-67
2023/03/15 01:31:19;;;;;;;9.65;1.73;;;;;;;;;;5136517;27;20118;-67
2023/03/15 01:33:45;;;;;;;9.45;1.80;;;;;;;;;;5117870;27;20031;-67
2023/03/15 01:36:11;;;;;;;8.90;1.95;;;;;;;;;;5117939;27;20039;-67
2023/03/15 01:38:37;;;;;;;5.03;1.40;;;;;;;;;;5120264;27;20066;-67
2023/03/15 01:41:03;;;;;;;3.63;1.08;;;;;;;;;;5116833;27;20100;-73
2023/03/15 01:43:31;;;;;;;9.85;1.70;;;;;;;;;;5117306;27;20084;-73
2023/03/15 01:46:12;;;;;;;6.10;1.20;;;;;;;;;;5117870;27;20104;-73
2023/03/15 01:48:43;;;;;;;4.00;1.50;;;;;;;;;;5117053;27;20387;-73
2023/03/15 01:51:15;;;;;;;7.82;1.77;;;;;;;;;;5100944;27;20367;-73
2023/03/15 01:53:42;;;;;;;5.97;1.42;;;;;;;;;;5117877;27;20487;-73
2023/03/15 01:56:09;;;;;;;6.18;1.35;;;;;;;;;;5117992;27;20067;-73
2023/03/15 01:58:35;;;;;;;4.50;1.35;;;;;;;;;;5117880;27;20031;-73
2023/03/15 02:01:02;;;;;;;7.05;1.42;;;;;;;;;;5118127;27;20084;-73
2023/03/15 02:03:31;;;;;;;6.03;1.40;;;;;;;;;;5099709;27;20360;-74
2023/03/15 02:06:00;;;;;;;5.43;1.60;;;;;;;;;;5100688;27;20039;-73
2023/03/15 02:08:28;;;;;;;7.85;1.20;;;;;;;;;;5117430;27;20042;-73
2023/03/15 02:10:57;;;;;;;4.43;1.10;;;;;;;;;;5117816;27;20054;-73
2023/03/15 02:13:24;;;;;;;8.35;1.35;;;;;;;;;;5117319;27;20039;-73
2023/03/15 02:15:52;;;;;;;8.18;1.52;;;;;;;;;;5117332;27;20461;-73
2023/03/15 02:18:18;;;;;;;3.40;1.40;;;;;;;;;;5117824;27;20359;-73
2023/03/15 02:20:44;;;;;;;4.85;1.33;;;;;;;;;;5100500;27;20555;-73
2023/03/15 02:23:12;;;;;;;6.30;1.30;;;;;;;;;;5116822;27;20039;-73
2023/03/15 02:25:41;;;;;;;3.58;1.38;;;;;;;;;;5117071;27;20042;-73
2023/03/15 02:28:09;;;;;;;5.03;1.50;;;;;;;;;;5117005;27;20039;-73
2023/03/15 02:30:35;;;;;;;6.53;1.52;;;;;;;;;;5116963;27;20122;-73
2023/03/15 02:33:04;;;;;;;2.17;1.30;;;;;;;;;;5116565;27;20043;-73
2023/03/15 02:35:31;;;;;;;3.97;1.60;;;;;;;;;;5099520;27;20049;-73
2023/03/15 02:37:57;;;;;;;4.50;1.42;;;;;;;;;;5116791;27;20467;-73
2023/03/15 02:40:26;;;;;;;3.90;1.20;;;;;;;;;;5116995;27;20053;-73
2023/03/15 02:42:55;;;;;;;7.18;2.00;;;;;;;;;;5133628;27;20046;-73
2023/03/15 02:45:22;;;;;;;4.55;1.30;;;;;;;;;;5116335;27;20070;-73
2023/03/15 02:47:48;;;;;;;7.57;1.50;;;;;;;;;;5116564;27;20565;-73
2023/03/15 02:50:14;;;;;;;6.95;1.45;;;;;;;;;;5117174;27;20042;-73
2023/03/15 02:52:40;;;;;;;5.93;1.42;;;;;;;;;;5116546;27;20035;-73
2023/03/15 02:55:07;;;;;;;8.20;1.77;;;;;;;;;;5116437;27;20047;-73
2023/03/15 02:57:33;;;;;;;9.50;1.67;;;;;;;;;;5134914;27;20513;-73
2023/03/15 03:00:05;;;;;;;10.75;1.73;;;;;;;;;;5116781;27;20042;-67
2023/03/15 03:02:31;;;;;;;7.88;1.40;;;;;;;;;;5116500;27;20131;-67
2023/03/15 03:04:57;;;;;;;7.47;1.33;;;;;;;;;;5116457;27;20050;-67
2023/03/15 03:07:23;;;;;;;10.30;2.00;;;;;;;;;;5115697;27;20050;-67
2023/03/15 03:09:49;;;;;;;6.93;1.45;;;;;;;;;;5134430;27;20471;-67
2023/03/15 03:12:15;;;;;;;8.57;1.70;;;;;;;;;;5116117;27;20046;-67
2023/03/15 03:14:44;;;;;;;9.02;2.10;;;;;;;;;;5115642;27;20074;-67
2023/03/15 03:17:10;;;;;;;6.40;2.08;;;;;;;;;;5115837;27;20088;-67
2023/03/15 03:19:36;;;;;;;5.68;1.90;;;;;;;;;;5116384;27;20134;-67
2023/03/15 03:22:03;;;;;;;13.35;1.75;;;;;;;;;;5116229;27;20042;-67
2023/03/15 03:24:30;;;;;;;7.78;1.60;;;;;;;;;;5115868;27;20101;-68
2023/03/15 03:26:56;;;;;;;8.38;1.90;;;;;;;;;;5099053;27;20063;-68
2023/03/15 03:29:23;;;;;;;7.53;1.45;;;;;;;;;;5115891;27;20043;-67
2023/03/15 03:31:49;;;;;;;9.40;2.33;;;;;;;;;;5115855;27;20515;-67
2023/03/15 03:34:15;;;;;;;7.35;1.60;;;;;;;;;;5115835;28;20061;-67
2023/03/15 03:36:42;;;;;;;10.57;1.77;;;;;;;;;;5098844;27;20110;-67
2023/03/15 03:39:08;;;;;;;6.18;1.60;;;;;;;;;;5115764;28;20035;-73
2023/03/15 03:41:34;;;;;;;11.65;2.15;;;;;;;;;;5115166;27;20035;-73
2023/03/15 03:44:00;;;;;;;4.93;2.00;;;;;;;;;;5115403;27;20039;-73
2023/03/15 03:46:27;;;;;;;7.40;2.00;;;;;;;;;;5115996;28;20039;-74
2023/03/15 03:48:53;;;;;;;5.47;1.60;;;;;;;;;;5115551;28;20103;-73
2023/03/15 03:51:19;;;;;;;9.88;1.65;;;;;;;;;;5114839;28;20096;-73
2023/03/15 03:53:46;;;;;;;8.15;1.52;;;;;;;;;;5115843;28;20043;-73
2023/03/15 03:56:12;;;;;;;13.65;2.00;;;;;;;;;;5115277;28;20090;-73
2023/03/15 03:58:38;;;;;;;11.68;1.63;;;;;;;;;;5133018;28;20027;-73
2023/03/15 04:01:04;;;;;;;13.45;2.30;;;;;;;;;;5115479;28;20463;-73
2023/03/15 04:03:30;;;;;;;8.10;2.00;;;;;;;;;;5115575;28;20035;-73
2023/03/15 04:05:57;;;;;;;9.68;1.65;;;;;;;;;;5115562;28;20070;-74
2023/03/15 04:08:24;;;;;;;11.65;2.35;;;;;;;;;;5115123;28;20043;-73
2023/03/15 04:10:51;;;;;;;7.93;1.67;;;;;;;;;;5115672;28;20489;-73
2023/03/15 04:13:17;;;;;;;8.93;2.00;;;;;;;;;;5117627;28;20075;-73
2023/03/15 04:15:43;;;;;;;16.23;2.33;;;;;;;;;;5116932;28;20035;-74
2023/03/15 04:18:09;;;;;;;10.00;1.60;;;;;;;;;;5115450;28;20035;-74
2023/03/15 04:20:35;;;;;;;12.45;1.92;;;;;;;;;;5115646;27;20114;-74
2023/03/15 04:23:01;;;;;;;8.82;2.10;;;;;;;;;;5098333;27;20403;-72
2023/03/15 04:25:27;;;;;;;7.05;2.08;;;;;;;;;;5098574;27;20090;-72
2023/03/15 04:28:01;;;;;;;9.70;1.95;;;;;;;;;;5102793;27;20047;-72
2023/03/15 04:30:30;;;;;;;5.97;2.08;;;;;;;;;;5119453;27;20047;-72
2023/03/15 04:33:02;;;;;;;9.90;1.63;;;;;;;;;;5119344;27;20043;-72
2023/03/15 04:35:32;;;;;;;5.10;1.55;;;;;;;;;;5119618;27;20475;-73
2023/03/15 04:37:58;;;;;;;7.55;2.00;;;;;;;;;;5119213;27;20475;-74
2023/03/15 04:40:28;;;;;;;10.73;2.30;;;;;;;;;;5102672;27;20055;-74
2023/03/15 04:42:54;;;;;;;4.43;1.73;;;;;;;;;;5118709;27;20541;-75
2023/03/15 04:45:22;;;;;;;12.18;1.85;;;;;;;;;;5118780;27;20039;-76
2023/03/15 04:47:48;;;;;;;6.78;1.77;;;;;;;;;;5119073;27;20049;-73
2023/03/15 04:50:14;;;;;;;12.98;2.00;;;;;;;;;;5101170;27;20042;-73
2023/03/15 04:52:40;;;;;;;8.52;1.83;;;;;;;;;;5117442;27;20379;-73
2023/03/15 04:55:07;;;;;;;4.03;1.65;;;;;;;;;;5080933;28;20048;-73
2023/03/15 04:57:33;;;;;;;9.18;2.00;;;;;;;;;;5113875;28;20050;-74
2023/03/15 04:59:59;;;;;;;6.47;1.80;;;;;;;;;;5114179;28;20492;-73
2023/03/15 05:02:25;;;;;;;10.32;2.05;;;;;;;;;;5114579;28;20376;-73
2023/03/15 05:04:51;;;;;;;7.65;1.30;;;;;;;;;;5115697;28;20088;-74
2023/03/15 05:07:17;;;;;;;12.43;2.72;;;;;;;;;;5114197;28;20479;-73
2023/03/15 05:09:45;;;;;;;7.78;2.50;;;;;;;;;;5114567;28;20403;-73
2023/03/15 05:12:12;;;;;;;5.78;2.30;;;;;;;;;;5110517;28;20055;-71
2023/03/15 05:14:38;;;;;;;6.65;1.90;;;;;;;;;;5113627;28;20089;-73
2023/03/15 05:17:04;;;;;;;5.68;1.58;;;;;;;;;;5113989;28;20118;-73
2023/03/15 05:19:33;;;;;;;7.03;1.58;;;;;;;;;;5114317;28;20438;-75
2023/03/15 05:22:03;;;;;;;8.45;1.80;;;;;;;;;;5111284;28;20043;-73
2023/03/15 05:24:30;;;;;;;9.18;2.05;;;;;;;;;;5096906;28;20081;-73
2023/03/15 05:26:56;;;;;;;9.73;1.85;;;;;;;;;;5131043;27;20043;-73
2023/03/15 05:29:22;;;;;;;10.55;1.80;;;;;;;;;;5096716;28;20046;-73
2023/03/15 05:31:48;;;;;;;8.68;1.75;;;;;;;;;;5113823;28;20127;-72
2023/03/15 05:34:15;;;;;;;6.13;1.90;;;;;;;;;;5113395;28;20047;-74
2023/03/15 05:36:41;;;;;;;8.57;1.83;;;;;;;;;;5113421;28;20032;-74
2023/03/15 05:39:07;;;;;;;7.85;1.85;;;;;;;;;;5113358;28;20055;-74
2023/03/15 05:41:33;;;;;;;8.45;2.00;;;;;;;;;;5111293;28;20031;-73
2023/03/15 05:44:00;;;;;;;8.77;1.58;;;;;;;;;;5113566;28;20089;-74
2023/03/15 05:46:26;;;;;;;6.93;1.83;;;;;;;;;;5112935;28;20122;-73
2023/03/15 05:48:52;;;;;;;8.80;2.00;;;;;;;;;;5113662;28;20375;-74
2023/03/15 05:51:19;;;;;;;8.73;2.40;;;;;;;;;;5110426;28;20043;-74
2023/03/15 05:53:45;;;;;;;12.45;2.20;;;;;;;;;;5129002;27;20545;-74
2023/03/15 05:56:11;;;;;;;11.30;2.80;;;;;;;;;;5113311;28;20138;-75
2023/03/15 05:58:37;;;;;;;14.05;3.90;;;;;;;;;;5096228;28;20046;-74
2023/03/15 06:01:04;;;;;;;9.75;2.72;;;;;;;;;;5114320;28;20484;-74
2023/03/15 06:03:30;;;;;;;13.10;2.78;;;;;;;;;;5114560;28;20043;-75
2023/03/15 06:05:57;;;;;;;7.82;2.60;;;;;;;;;;5114356;28;20157;-75
2023/03/15 06:08:23;;;;;;;10.02;2.92;;;;;;;;;;5114115;28;20043;-74
2023/03/15 06:10:49;;;;;;;10.05;2.92;;;;;;;;;;5114145;28;20126;-74
2023/03/15 06:13:15;;;;;;;10.15;3.13;;;;;;;;;;5113823;28;20040;-74
2023/03/15 06:15:41;;;;;;;15.93;3.30;;;;;;;;;;5113964;28;20040;-74
2023/03/15 06:18:07;;;;;;;9.63;2.33;;;;;;;;;;5114131;28;20051;-74
2023/03/15 06:20:34;;;;;;;7.93;2.97;;;;;;;;;;5113838;28;20036;-74
2023/03/15 06:23:00;;;;;;;5.93;2.55;;;;;;;;;;5096574;28;20040;-74
2023/03/15 06:25:26;;;;;;;12.57;2.72;;;;;;;;;;5115185;28;20118;-74
2023/03/15 06:27:52;;;;;;;8.10;2.33;;;;;;;;;;5113985;28;20035;-74
2023/03/15 06:30:19;;;;;;;12.30;2.38;;;;;;;;;;5113591;28;20046;-74
2023/03/15 06:32:45;;;;;;;12.07;2.45;;;;;;;;;;5095810;28;20118;-71
2023/03/15 06:35:11;;;;;;;14.38;2.22;;;;;;;;;;5113281;28;20475;-69
2023/03/15 06:37:38;;;;;;;11.93;2.25;;;;;;;;;;5112986;28;20076;-69
2023/03/15 06:40:08;;;;;;;15.70;2.97;;;;;;;;;;5112875;28;20092;-68
2023/03/15 06:42:34;;;;;;;12.48;2.65;;;;;;;;;;5112918;27;20038;-68
2023/03/15 06:45:01;;;;;;;10.98;2.35;;;;;;;;;;5087470;28;20051;-68
2023/03/15 06:47:27;;;;;;;13.25;2.67;;;;;;;;;;5112769;28;20092;-68
2023/03/15 06:49:53;;;;;;;12.13;2.15;;;;;;;;;;5089748;28;20131;-68
2023/03/15 06:52:19;;;;;;;14.70;2.55;;;;;;;;;;5112699;28;20050;-69
2023/03/15 06:54:45;;;;;;;10.55;3.00;;;;;;;;;;5112547;27;20079;-69
2023/03/15 06:57:11;;;;;;;16.95;3.95;;;;;;;;;;5099295;27;20127;-69
2023/03/15 06:59:37;;;;;;;22.13;3.55;;;;;;;;;;5133774;27;20393;-68
2023/03/15 07:02:04;;;;;;;14.38;2.95;;;;;;;;;;5125501;27;20433;-68
2023/03/15 07:04:30;;;;;;;14.73;2.63;;;;;;;;;;5116743;27;20418;-69
2023/03/15 07:06:56;;;;;;;14.88;2.28;;;;;;;;;;5116453;27;20047;-69
2023/03/15 07:09:22;;;;;;;8.20;1.98;;;;;;;;;;5099476;27;20100;-69
2023/03/15 07:11:48;;;;;;;11.57;1.95;;;;;;;;;;5116523;27;20047;-69
2023/03/15 07:14:14;;;;;;;6.47;1.70;;;;;;;;;;5099399;27;20030;-69
2023/03/15 07:16:40;;;;;;;9.75;2.35;;;;;;;;;;5116316;27;20047;-69
2023/03/15 07:19:06;;;;;;;5.93;1.83;;;;;;;;;;5116320;27;20122;-68
2023/03/15 07:21:32;;;;;;;6.05;1.65;;;;;;;;;;5116527;27;20383;-68
2023/03/15 07:23:58;;;;;;;5.32;1.60;;;;;;;;;;5115921;27;20039;-69
2023/03/15 07:26:24;;;;;;;6.20;1.60;;;;;;;;;;5116019;27;20035;-69
2023/03/15 07:28:50;;;;;;;4.63;1.63;;;;;;;;;;5115921;27;20072;-69
2023/03/15 07:31:16;;;;;;;3.97;1.55;;;;;;;;;;5115846;27;20043;-69
2023/03/15 07:33:42;;;;;;;9.43;2.20;;;;;;;;;;5115883;27;20615;-69
2023/03/15 07:36:09;;;;;;;8.35;2.13;;;;;;;;;;5116296;27;20058;-69
2023/03/15 07:38:35;;;;;;;4.80;1.50;;;;;;;;;;5116201;27;20110;-69
2023/03/15 07:41:02;;;;;;;9.00;1.83;;;;;;;;;;5116052;28;20050;-69
2023/03/15 07:43:28;;;;;;;5.75;1.88;;;;;;;;;;5115862;28;20035;-69
2023/03/15 07:45:54;;;;;;;8.98;2.53;;;;;;;;;;5115830;27;20039;-69
2023/03/15 07:48:20;;;;;;;9.43;1.63;;;;;;;;;;5113700;28;20043;-70
2023/03/15 07:50:47;;;;;;;6.72;2.63;;;;;;;;;;5115466;28;20043;-71
2023/03/15 07:53:13;;;;;;;7.30;1.70;;;;;;;;;;5115488;28;20494;-69
2023/03/15 07:55:39;;;;;;;6.53;1.50;;;;;;;;;;5114409;28;20059;-69
2023/03/15 07:58:05;;;;;;;10.95;2.00;;;;;;;;;;5114279;28;20074;-69
2023/03/15 08:00:31;;;;;;;8.15;2.50;;;;;;;;;;5115914;27;20078;-70
2023/03/15 08:02:58;;;;;;;9.35;1.70;;;;;;;;;;5120159;27;20031;-69
2023/03/15 08:05:24;;;;;;;6.32;1.48;;;;;;;;;;5119815;27;20039;-70
2023/03/15 08:07:50;;;;;;;6.55;1.98;;;;;;;;;;5103112;27;20043;-69
2023/03/15 08:10:17;;;;;;;4.00;1.40;;;;;;;;;;5119809;27;20039;-69
2023/03/15 08:12:44;;;;;;;9.00;1.60;;;;;;;;;;5119729;27;20054;-69
2023/03/15 08:15:11;;;;;;;6.85;1.50;;;;;;;;;;5119556;27;20561;-72
2023/03/15 08:17:37;;;;;;;6.93;1.40;;;;;;;;;;5119601;27;20035;-69
2023/03/15 08:20:04;;;;;;;14.65;2.53;;;;;;;;;;5119644;27;20035;-69
2023/03/15 08:22:30;;;;;;;3.85;1.33;;;;;;;;;;5119732;27;20046;-70
2023/03/15 08:24:57;;;;;;;6.65;1.50;;;;;;;;;;5102478;27;20092;-69
2023/03/15 08:27:26;;;;;;;11.88;2.53;;;;;;;;;;5119718;27;20047;-70
2023/03/15 08:29:52;;;;;;;8.88;1.70;;;;;;;;;;5119645;27;20051;-69
2023/03/15 08:32:18;;;;;;;7.32;1.83;;;;;;;;;;5136961;27;20031;-69
2023/03/15 08:34:45;;;;;;;7.32;2.38;;;;;;;;;;5118813;27;20487;-66
2023/03/15 08:37:11;;;;;;;13.88;2.47;;;;;;;;;;5118262;27;20074;-69
2023/03/15 08:39:40;;;;;;;5.63;1.63;;;;;;;;;;5118339;27;20070;-69
2023/03/15 08:42:06;;;;;;;5.32;1.52;;;;;;;;;;5137648;27;20070;-69
2023/03/15 08:44:32;;;;;;;6.57;2.00;;;;;;;;;;5137451;27;20039;-69
2023/03/15 08:46:58;;;;;;;8.57;1.60;;;;;;;;;;5119403;27;20035;-69
2023/03/15 08:49:25;;;;;;;11.80;2.03;;;;;;;;;;5118955;27;20122;-69
2023/03/15 08:51:51;;;;;;;9.98;1.63;;;;;;;;;;5119025;27;20050;-69
2023/03/15 08:54:17;;;;;;;11.27;2.08;;;;;;;;;;5119006;27;20039;-69
2023/03/15 08:56:43;;;;;;;13.43;2.10;;;;;;;;;;5118649;27;20059;-66
2023/03/15 08:59:09;;;;;;;7.97;2.20;;;;;;;;;;5101749;27;20043;-66
2023/03/15 09:01:36;;;;;;;9.50;2.30;;;;;;;;;;5118764;27;20031;-69
2023/03/15 09:04:03;;;;;;;9.43;1.60;;;;;;;;;;5118833;27;20125;-67
2023/03/15 09:06:30;;;;;;;16.17;2.83;;;;;;;;;;5118861;27;20078;-71
2023/03/15 09:08:56;;;;;;;18.48;2.92;;;;;;;;;;5101922;27;20367;-67
2023/03/15 09:11:22;;;;;;;13.50;2.60;;;;;;;;;;5117490;27;20054;-66
2023/03/15 09:13:48;;;;;;;14.38;2.33;;;;;;;;;;5100461;27;20046;-67
2023/03/15 09:16:15;;;;;;;11.32;2.00;;;;;;;;;;5116833;27;20035;-66
2023/03/15 09:18:42;;;;;;;13.30;2.08;;;;;;;;;;5118410;27;20071;-66
2023/03/15 09:21:09;;;;;;;10.13;1.70;;;;;;;;;;5093897;27;20129;-66
2023/03/15 09:23:35;;;;;;;9.95;1.83;;;;;;;;;;5139211;27;20045;-66
2023/03/15 09:26:01;;;;;;;11.48;1.98;;;;;;;;;;5157338;27;20565;-66
2023/03/15 09:28:28;;;;;;;10.45;2.33;;;;;;;;;;5139060;27;20027;-68
2023/03/15 09:30:54;;;;;;;11.10;2.00;;;;;;;;;;5140388;27;20069;-72
2023/03/15 09:33:21;;;;;;;9.07;1.75;;;;;;;;;;5101382;28;20062;-72
2023/03/15 09:35:51;;;;;;;7.22;2.05;;;;;;;;;;5106743;27;20027;-72
2023/03/15 09:38:18;;;;;;;10.48;2.03;;;;;;;;;;5128220;27;20110;-72
2023/03/15 09:40:45;;;;;;;13.32;1.77;;;;;;;;;;5098250;27;20042;-72
2023/03/15 09:43:34;;;;;;;10.93;1.88;;;;;;;;;;5101010;27;20482;-72
2023/03/15 09:46:36;;;;;;;7.63;2.13;;;;;;;;;;5111043;27;20049;-72
2023/03/15 09:49:09;;;;;;;5.95;1.38;;;;;;;;;;5041052;28;20488;-71
2023/03/15 09:51:47;;;;;;;12.65;1.83;;;;;;;;;;5096124;28;20494;-71
2023/03/15 09:54:31;;;;;;;12.23;2.10;;;;;;;;;;5108595;27;20051;-71
2023/03/15 09:57:01;;;;;;;7.88;1.50;;;;;;;;;;5097054;28;20047;-71
2023/03/15 09:59:31;;;;;;;9.68;2.70;;;;;;;;;;5102660;27;20476;-71
2023/03/15 10:01:58;;;;;;;6.70;1.63;;;;;;;;;;5097046;28;20042;-71
2023/03/15 10:04:29;;;;;;;8.02;1.63;;;;;;;;;;5127845;27;20043;-71
2023/03/15 10:07:00;;;;;;;14.38;2.20;;;;;;;;;;5097568;27;20055;-71
2023/03/15 10:09:28;;;;;;;6.07;1.98;;;;;;;;;;5102526;28;20101;-71
2023/03/15 10:12:15;;;;;;;8.48;1.70;;;;;;;;;;5096941;28;20040;-71
2023/03/15 10:14:59;;;;;;;8.13;1.60;;;;;;;;;;5111349;27;20047;-72
2023/03/15 10:17:28;;;;;;;8.20;1.85;;;;;;;;;;5137305;27;20054;-71
2023/03/15 10:20:00;;;;;;;6.57;1.75;;;;;;;;;;5137848;27;20034;-71
2023/03/15 10:22:31;;;;;;;10.27;1.40;;;;;;;;;;5136865;27;20042;-71
2023/03/15 10:24:57;;;;;;;8.27;2.13;;;;;;;;;;5155576;27;20049;-71
2023/03/15 10:27:38;;;;;;;9.32;1.90;;;;;;;;;;5120607;27;20042;-71
2023/03/15 10:30:20;;;;;;;7.97;1.77;;;;;;;;;;5137843;27;20067;-71
2023/03/15 10:32:49;;;;;;;22.33;2.47;;;;;;;;;;5120815;27;20043;-71
2023/03/15 10:35:16;;;;;;;13.50;2.40;;;;;;;;;;5156296;27;20431;-71
2023/03/15 10:37:42;;;;;;;9.45;1.92;;;;;;;;;;5138813;27;20072;-71
2023/03/15 10:40:15;;;;;;;8.43;1.85;;;;;;;;;;5138653;27;20487;-71
2023/03/15 10:42:47;;;;;;;10.23;1.90;;;;;;;;;;5156451;27;20046;-71
2023/03/15 10:45:24;;;;;;;7.95;1.95;;;;;;;;;;5138082;27;20061;-71
2023/03/15 10:47:51;;;;;;;8.77;2.08;;;;;;;;;;5137403;27;20071;-71
2023/03/15 10:50:25;;;;;;;9.23;1.75;;;;;;;;;;5121253;27;20441;-72
2023/03/15 10:52:54;;;;;;;8.75;1.80;;;;;;;;;;5116089;27;20043;-71
2023/03/15 10:55:25;;;;;;;5.78;1.40;;;;;;;;;;5119720;27;20399;-71
2023/03/15 10:57:54;;;;;;;10.65;1.80;;;;;;;;;;5115512;27;20046;-72
2023/03/15 11:00:25;;;;;;;12.32;2.22;;;;;;;;;;5115435;27;20038;-72
2023/03/15 11:02:52;;;;;;;8.00;1.50;;;;;;;;;;5115518;27;20027;-72
2023/03/15 11:05:19;;;;;;;6.22;1.80;;;;;;;;;;5115473;27;20039;-72
2023/03/15 11:07:56;;;;;;;8.60;1.90;;;;;;;;;;5115721;27;20054;-72
2023/03/15 11:10:34;;;;;;;12.48;1.88;;;;;;;;;;5098984;27;20043;-72
2023/03/15 11:13:22;;;;;;;18.23;3.28;;;;;;;;;;5113275;27;20043;-72
2023/03/15 11:16:08;;;;;;;10.98;1.55;;;;;;;;;;5115176;27;20128;-72
2023/03/15 11:18:34;;;;;;;7.15;2.80;;;;;;;;;;5092343;27;20062;-72
2023/03/15 11:21:03;;;;;;;8.75;1.58;;;;;;;;;;5114411;27;20395;-72
2023/03/15 11:23:33;;;;;;;7.65;1.40;;;;;;;;;;5115331;27;20131;-72
2023/03/15 11:26:00;;;;;;;7.35;1.60;;;;;;;;;;5097955;27;20077;-72
2023/03/15 11:28:27;;;;;;;8.00;1.80;;;;;;;;;;5115113;27;20562;-72
2023/03/15 11:30:55;;;;;;;9.85;2.30;;;;;;;;;;5115163;27;20125;-72
2023/03/15 11:33:44;;;;;;;10.18;1.77;;;;;;;;;;5115200;28;20047;-72
2023/03/15 11:36:17;;;;;;;12.45;2.33;;;;;;;;;;5087951;27;20453;-72
2023/03/15 11:38:43;;;;;;;7.18;1.48;;;;;;;;;;5115310;27;20395;-72
2023/03/15 11:41:28;;;;;;;9.20;1.60;;;;;;;;;;5115317;27;20041;-72
2023/03/15 11:43:56;;;;;;;7.75;1.55;;;;;;;;;;5112281;28;20061;-72
2023/03/15 11:46:22;;;;;;;9.07;1.55;;;;;;;;;;5125819;27;20355;-73
2023/03/15 11:49:04;;;;;;;6.07;1.55;;;;;;;;;;5120091;28;20035;-73
2023/03/15 11:51:34;;;;;;;11.57;1.95;;;;;;;;;;5115156;28;20183;-72
2023/03/15 11:54:06;;;;;;;11.23;1.88;;;;;;;;;;5115006;28;20031;-72
2023/03/15 11:56:44;;;;;;;11.25;1.85;;;;;;;;;;5114605;28;20051;-73
2023/03/15 11:59:11;;;;;;;9.13;2.13;;;;;;;;;;5114943;28;20039;-72
2023/03/15 12:01:42;;;;;;;5.18;1.65;;;;;;;;;;5132654;28;20042;-72
2023/03/15 12:04:17;;;;;;;10.15;2.45;;;;;;;;;;5098298;28;20027;-72
2023/03/15 12:06:43;;;;;;;12.32;1.90;;;;;;;;;;5114836;28;20066;-72
2023/03/15 12:09:29;;;;;;;8.02;1.65;;;;;;;;;;5115240;28;20066;-72
2023/03/15 12:12:01;;;;;;;7.32;1.95;;;;;;;;;;5133030;27;20118;-67
2023/03/15 12:14:29;;;;;;;3.40;1.27;;;;;;;;;;5114821;28;20071;-68
2023/03/15 12:17:22;;;;;;;4.53;1.90;;;8.80;97.80;;;;;;5114987;28;20035;-67
2023/03/15 12:19:58;;;;;;;4.13;1.77;;;;;;;;;;5114779;28;20463;-67
2023/03/15 12:22:26;;;;;;;11.43;1.70;;;;;;;;;;5129960;28;20027;-67
2023/03/15 12:24:52;;;;;;;6.90;1.50;;;;;;;;;;5113999;28;20498;-67
2023/03/15 12:27:19;;;;;;;7.43;1.50;;;;;;;;;;5132856;27;20106;-67
2023/03/15 12:29:46;;;;;;;8.70;1.75;;;;;;;;;;5112333;28;20039;-67
2023/03/15 12:32:14;;;;;;;5.22;1.38;;;;;;;;;;5097177;28;20513;-68
2023/03/15 12:34:46;;;;;;;6.72;1.77;;;;;;;;;;5113160;28;20163;-68
2023/03/15 12:37:32;;;;;;;13.70;1.92;;;;;;;;;;5114117;28;20035;-67
2023/03/15 12:40:00;;;;;;;12.07;1.83;;;;;;;;;;5100138;28;20077;-67
2023/03/15 12:42:32;;;;;;;7.75;1.70;;;;;;;;;;5114332;28;20416;-67
2023/03/15 12:45:24;;;;;;;6.22;1.50;;;;;;;;;;5111878;28;20043;-67
2023/03/15 12:47:50;;;;;;;12.35;2.38;;;;;;;;;;5111810;27;20165;-72
2023/03/15 12:50:35;;;;;;;4.60;1.23;;;;;;;;;;5147878;27;20054;-72
2023/03/15 12:53:02;;;;;;;8.55;1.50;;;;;;;;;;5115554;27;20054;-72
2023/03/15 12:55:31;;;;;;;6.80;1.60;;;;;;;;;;5109423;28;20040;-72
2023/03/15 12:57:58;;;;;;;9.50;1.90;;;;;;;;;;5076775;28;20044;-72
2023/03/15 13:00:29;;;;;;;13.27;1.60;;;;;;;;;;5094949;28;20040;-72
2023/03/15 13:03:15;;;;;;;7.72;1.52;;;;;;;;;;5093687;28;20082;-72
2023/03/15 13:05:50;;;;;;;8.63;1.95;;;;;;;;;;5110904;28;20043;-67
2023/03/15 13:08:20;;;;;;;4.53;1.48;;;;;;;;;;5093558;28;20446;-67
2023/03/15 13:10:46;;;;;;;7.80;1.60;;;;;;;;;;5093640;28;20113;-67
2023/03/15 13:13:12;;;;;;;6.38;1.60;;;;;;;;;;5093731;28;20035;-67
2023/03/15 13:16:02;;;;;;;8.65;1.70;;;;;;;;;;5091564;28;20131;-67
2023/03/15 13:18:33;;;;;;;4.18;1.45;;;;;;;;;;5056481;28;20052;-67
2023/03/15 13:21:17;;;;;;;7.75;2.17;;;;;;;;;;5091344;28;20043;-67
2023/03/15 13:23:46;;;;;;;11.65;2.00;;;;;;;;;;5076833;28;20047;-67
2023/03/15 13:26:33;;;;;;;5.30;1.58;;;;;;;;;;5093207;28;20032;-73
2023/03/15 13:29:00;;;;;;;7.75;2.28;;;;;;;;;;5120305;27;20127;-73
2023/03/15 13:31:29;;;;;;;5.88;1.67;;;;;;;;;;5093745;28;20034;-73
2023/03/15 13:33:56;;;;;;;6.30;1.77;;;;;;;;;;5093215;28;20067;-73
2023/03/15 13:36:26;;;;;;;9.57;1.45;;;;;;;;;;5076892;28;20039;-72
2023/03/15 13:38:54;;;;;;;7.25;2.00;;;;;;;;;;5093641;28;20384;-73
2023/03/15 13:41:24;;;;;;;6.78;1.40;;;;;;;;;;5094392;28;20117;-72
2023/03/15 13:43:51;;;;;;;9.65;1.67;;;;;;;;;;5094532;28;20085;-73
2023/03/15 13:46:18;;;;;;;4.10;1.33;;;;;;;;;;5094529;28;20051;-66
2023/03/15 13:48:45;;;;;;;4.18;1.58;;;;;;;;;;5095621;28;20445;-66
2023/03/15 13:51:18;;;;;;;5.30;1.33;;;;;;;;;;5094677;28;20044;-66
2023/03/15 13:53:45;;;;;;;7.95;1.50;;;;;;;;;;5094125;28;20055;-67
2023/03/15 13:56:15;;;;;;;11.38;1.92;;;;;;;;;;5082784;28;20080;-66
2023/03/15 13:58:42;;;;;;;7.90;1.70;;;;;;;;;;5084193;28;20096;-66
2023/03/15 14:01:10;;;;;;;5.65;1.60;;;;;;;;;;5112434;28;20042;-66
2023/03/15 14:03:37;;;;;;;6.82;1.40;;;;;;;;;;5086169;28;20036;-67
2023/03/15 14:06:04;;;;;;;4.93;1.65;;;;;;;;;;5082072;28;20387;-67
2023/03/15 14:08:35;;;;;;;8.15;1.70;;;;;;;;;;5084337;28;20039;-66
2023/03/15 14:11:11;;;;;;;7.70;1.67;;;;;;;;;;5080251;28;20043;-66
2023/03/15 14:13:50;;;;;;;7.80;1.65;;;;;;;;;;5093603;28;20048;-66
2023/03/15 14:16:17;;;;;;;5.88;1.58;;;;;;;;;;5093197;28;20043;-66
2023/03/15 14:18:43;;;;;;;4.97;1.50;;;;;;;;;;5093670;28;20044;-67
2023/03/15 14:21:17;;;;;;;7.40;2.08;;;;;;;;;;5085873;28;20039;-66
2023/03/15 14:23:47;;;;;;;4.97;1.52;;;;;;;;;;5073283;28;20160;-66
2023/03/15 14:26:18;;;;;;;13.88;2.08;;;;;;;;;;5062571;28;20043;-66
2023/03/15 14:28:53;;;;;;;6.30;2.10;;;;;;;;;;5073054;28;20048;-66
2023/03/15 14:31:22;;;;;;;5.68;1.50;;;;;;;;;;5073596;28;20039;-66
2023/03/15 14:33:52;;;;;;;7.20;2.67;;;;;;;;;;5072928;28;20055;-66
2023/03/15 14:36:30;;;;;;;5.57;1.20;;;;;;;;;;5079511;28;20089;-66
2023/03/15 14:38:57;;;;;;;7.70;1.48;;;;;;;;;;5093182;28;20047;-66
2023/03/15 14:41:24;;;;;;;7.20;1.40;;;;;;;;;;5075155;28;20051;-66
2023/03/15 14:43:50;;;;;;;6.13;1.83;;;;;;;;;;5073414;28;20546;-71
2023/03/15 14:46:17;;;;;;;9.77;1.70;;;;;;;;;;5072762;28;20036;-72